Aviation Digital Data Service (ADDS)

Output produced by METARs form (0041 UTC 20 April 2019)
found at http://www.aviationweather.gov/metar/data/
 
Forecast for: WAMM (MENADO/SAM RATUL, ID)
Text: TAF WAMM 192300Z 2000/2106 04008KT 9999 SCT022
Forecast period: 0000 to 0900 UTC 20 April 2019
Forecast type: FROM: standard forecast or significant change
Winds: from the NE (40 degrees) at 9 MPH (8 knots; 4.1 m/s)
Visibility: 6 or more miles 10+ km)
Ceiling: at least 12,000 feet AGL
Clouds: scattered clouds at 2200 feet AGL
Weather: no significant weather forecast for this period
Text: TEMPO 2003/2007 6000 -RA FEW017CB SCT018
Forecast period: 0300 to 0700 UTC 20 April 2019
Forecast type: TEMPORARY: The following changes expected for less than half the time period
Visibility: 4 miles (6 km)
Ceiling: at least 12,000 feet AGL
Clouds: few clouds at 1700 feet AGL
scattered clouds at 1800 feet AGL
Weather: -RA  (light rain)
Text: BECMG 2009/2011 08002KT
Forecast period: 0900 UTC 20 April 2019 to 0600 UTC 21 April 2019
Forecast type: BECOMING: Conditions expected to become as follows by 1100 UTC 20 April 2019
Winds: from the E (80 degrees) at 2 MPH (2 knots; 1.0 m/s)
Visibility: 6 or more miles 10+ km)
Ceiling: at least 12,000 feet AGL
Clouds: scattered clouds at 2200 feet AGL
Weather: no significant weather forecast for this period